createdAt,value
2023-01-08T00:00:45.025Z,5.82
2023-01-08T00:06:25.396Z,5.97
2023-01-08T00:11:49.497Z,6.11
2023-01-08T00:17:11.322Z,6.16
2023-01-08T00:22:32.958Z,6.10
2023-01-08T00:27:55.186Z,6.03
2023-01-08T00:33:17.016Z,6.10
2023-01-08T00:38:38.785Z,6.10
2023-01-08T00:44:00.772Z,6.21
2023-01-08T00:49:22.473Z,6.23
2023-01-08T00:54:44.433Z,6.30
2023-01-08T01:00:08.955Z,6.35
2023-01-08T01:05:30.929Z,6.28
2023-01-08T01:10:52.803Z,6.13
2023-01-08T01:16:17.852Z,5.96
2023-01-08T01:21:40.007Z,5.77
2023-01-08T01:27:02.026Z,5.66
2023-01-08T01:32:24.161Z,5.56
2023-01-08T01:37:45.883Z,5.30
2023-01-08T01:43:13.130Z,5.18
2023-01-08T01:48:34.971Z,5.12
2023-01-08T01:53:57.290Z,4.90
2023-01-08T01:59:19.224Z,4.76
2023-01-08T02:04:41.449Z,4.79
2023-01-08T02:10:15.231Z,4.76
2023-01-08T02:15:48.575Z,4.72
2023-01-08T02:21:14.112Z,4.67
2023-01-08T02:26:36.358Z,4.58
2023-01-08T02:31:58.295Z,4.46
2023-01-08T02:37:19.821Z,4.22
2023-01-08T02:42:55.833Z,4.12
2023-01-08T02:48:22.071Z,3.93
2023-01-08T02:53:49.196Z,3.79
2023-01-08T02:59:11.903Z,3.56
2023-01-08T03:04:38.555Z,3.32
2023-01-08T03:10:01.104Z,3.17
2023-01-08T03:15:50.324Z,3.15
2023-01-08T03:21:11.755Z,3.27
2023-01-08T03:26:33.785Z,3.35
2023-01-08T03:31:58.887Z,3.47
2023-01-08T03:37:23.981Z,3.47
2023-01-08T03:42:45.789Z,3.54
2023-01-08T03:48:08.097Z,3.59
2023-01-08T03:53:29.720Z,3.60
2023-01-08T03:58:51.331Z,3.55
2023-01-08T04:04:13.330Z,3.47
2023-01-08T04:09:35.339Z,3.48
2023-01-08T04:14:57.230Z,3.40
2023-01-08T04:20:19.096Z,3.23
2023-01-08T04:25:41.465Z,3.26
2023-01-08T04:31:10.310Z,3.34
2023-01-08T04:36:32.208Z,3.29
2023-01-08T04:41:54.092Z,3.08
2023-01-08T04:47:15.970Z,3.02
2023-01-08T04:52:38.004Z,3.12
2023-01-08T04:57:59.623Z,3.18
2023-01-08T05:03:21.532Z,3.31
2023-01-08T05:08:43.916Z,3.28
2023-01-08T05:14:05.820Z,3.17
2023-01-08T05:19:27.843Z,3.28
2023-01-08T05:24:49.568Z,3.23
2023-01-08T05:30:12.013Z,3.13
2023-01-08T05:35:33.837Z,3.07
2023-01-08T05:40:55.460Z,3.10
2023-01-08T05:46:17.591Z,3.08
2023-01-08T05:51:41.672Z,2.99
2023-01-08T05:57:03.655Z,3.07
2023-01-08T06:02:25.739Z,3.13
2023-01-08T06:07:47.928Z,3.07
2023-01-08T06:13:10.360Z,2.96
2023-01-08T06:18:32.177Z,2.96
2023-01-08T06:23:54.107Z,3.01
2023-01-08T06:29:16.341Z,3.12
2023-01-08T06:34:38.777Z,3.21
2023-01-08T06:40:00.908Z,3.23
2023-01-08T06:45:23.027Z,3.24
2023-01-08T06:50:44.656Z,3.18
2023-01-08T06:56:09.452Z,3.14
2023-01-08T07:01:31.424Z,3.12
2023-01-08T07:06:53.459Z,3.09
2023-01-08T07:12:15.383Z,3.11
2023-01-08T07:17:37.533Z,3.04
2023-01-08T07:23:06.872Z,3.07
2023-01-08T07:28:29.704Z,3.24
2023-01-08T07:33:51.831Z,3.44
2023-01-08T07:39:14.161Z,3.61
2023-01-08T07:44:36.398Z,3.76
2023-01-08T07:49:58.424Z,3.91
2023-01-08T07:55:20.221Z,4.05
2023-01-08T08:00:42.284Z,4.25
2023-01-08T08:06:04.322Z,4.39
2023-01-08T08:11:26.188Z,4.50
2023-01-08T08:16:48.149Z,4.61
2023-01-08T08:22:10.402Z,4.62
2023-01-08T08:27:32.126Z,4.66
2023-01-08T08:32:54.966Z,4.69
2023-01-08T08:38:17.893Z,4.68
2023-01-08T08:43:39.921Z,4.80
2023-01-08T08:49:01.581Z,4.96
2023-01-08T08:54:23.383Z,5.06
2023-01-08T08:59:45.518Z,5.02
2023-01-08T09:05:07.854Z,4.95
2023-01-08T09:10:29.582Z,4.96
2023-01-08T09:15:51.491Z,4.98
2023-01-08T09:21:13.829Z,5.04
2023-01-08T09:26:35.585Z,5.16
2023-01-08T09:32:00.105Z,5.32
2023-01-08T09:37:23.420Z,5.51
2023-01-08T09:42:51.664Z,5.81
2023-01-08T09:48:20.046Z,6.07
2023-01-08T09:53:43.199Z,6.30
2023-01-08T09:59:05.672Z,6.40
2023-01-08T10:04:30.000Z,6.45
2023-01-08T10:09:53.198Z,6.59
2023-01-08T10:15:18.341Z,6.60
2023-01-08T10:20:40.470Z,6.66
2023-01-08T10:26:03.290Z,6.72
2023-01-08T10:31:25.218Z,6.78
2023-01-08T10:36:46.886Z,6.89
2023-01-08T10:42:09.788Z,7.11
2023-01-08T10:48:21.124Z,7.34
2023-01-08T10:53:43.497Z,7.49
2023-01-08T10:59:05.329Z,7.60
2023-01-08T11:04:32.689Z,7.54
2023-01-08T11:09:55.003Z,7.42
2023-01-08T11:15:19.107Z,7.36
2023-01-08T11:20:44.100Z,7.37
2023-01-08T11:26:19.644Z,7.48
2023-01-08T11:31:51.501Z,7.62
2023-01-08T11:37:28.618Z,7.73
2023-01-08T11:42:56.626Z,7.72
2023-01-08T11:48:31.431Z,7.85
2023-01-08T11:54:04.810Z,7.95
2023-01-08T11:59:43.097Z,8.05
2023-01-08T12:05:32.321Z,8.12
2023-01-08T12:11:16.416Z,8.18
2023-01-08T12:16:52.987Z,8.27
2023-01-08T12:22:55.821Z,8.36
2023-01-08T12:28:37.468Z,8.49
2023-01-08T12:34:06.927Z,8.49
2023-01-08T12:39:32.173Z,8.48
2023-01-08T12:44:55.311Z,8.47
2023-01-08T12:50:32.399Z,8.50
2023-01-08T12:56:33.646Z,8.56
2023-01-08T13:02:28.664Z,8.45
2023-01-08T13:07:59.760Z,8.29
2023-01-08T13:13:29.302Z,8.35
2023-01-08T13:19:01.479Z,8.36
2023-01-08T13:24:32.448Z,8.27
2023-01-08T13:29:54.371Z,8.24
2023-01-08T13:35:16.414Z,8.18
2023-01-08T13:40:44.775Z,8.19
2023-01-08T13:46:20.348Z,8.21
2023-01-08T13:51:45.026Z,8.15
2023-01-08T13:57:14.505Z,8.05
2023-01-08T14:02:57.757Z,7.89
2023-01-08T14:08:26.437Z,7.77
2023-01-08T14:13:48.649Z,7.73
2023-01-08T14:19:18.497Z,7.71
2023-01-08T14:24:46.927Z,7.59
2023-01-08T14:30:18.591Z,7.40
2023-01-08T14:35:43.424Z,7.33
2023-01-08T14:41:12.091Z,7.28
2023-01-08T14:46:36.149Z,7.20
2023-01-08T14:51:59.219Z,7.03
2023-01-08T14:57:22.938Z,6.77
2023-01-08T15:02:47.164Z,6.73
2023-01-08T15:08:24.295Z,6.65
2023-01-08T15:13:48.033Z,6.57
2023-01-08T15:19:22.246Z,6.51
2023-01-08T15:24:54.698Z,6.44
2023-01-08T15:30:35.056Z,6.40
2023-01-08T15:36:04.624Z,6.36
2023-01-08T15:41:44.924Z,6.35
2023-01-08T15:47:08.362Z,6.36
2023-01-08T15:52:31.719Z,6.37
2023-01-08T15:57:56.130Z,6.28
2023-01-08T16:03:18.182Z,6.33
2023-01-08T16:08:46.008Z,6.37
2023-01-08T16:14:08.243Z,6.35
2023-01-08T16:19:33.676Z,6.19
2023-01-08T16:24:55.309Z,6.02
2023-01-08T16:30:17.688Z,5.82
2023-01-08T16:35:39.667Z,5.68
2023-01-08T16:41:01.795Z,5.60
2023-01-08T16:46:23.882Z,5.59
2023-01-08T16:51:45.603Z,5.59
2023-01-08T16:57:07.541Z,5.56
2023-01-08T17:02:29.383Z,5.57
2023-01-08T17:07:53.213Z,5.58
2023-01-08T17:13:15.078Z,5.59
2023-01-08T17:18:37.008Z,5.59
2023-01-08T17:23:58.743Z,5.64
2023-01-08T17:29:22.122Z,5.67
2023-01-08T17:34:43.904Z,5.74
2023-01-08T17:40:07.347Z,5.83
2023-01-08T17:45:32.110Z,5.92
2023-01-08T17:50:54.191Z,6.02
2023-01-08T17:56:15.966Z,6.07
2023-01-08T18:01:40.583Z,6.13
2023-01-08T18:07:02.682Z,6.21
2023-01-08T18:12:24.570Z,6.23
2023-01-08T18:17:48.116Z,6.30
2023-01-08T18:23:14.287Z,6.35
2023-01-08T18:28:38.758Z,6.38
2023-01-08T18:34:01.195Z,6.43
2023-01-08T18:39:23.113Z,6.43
2023-01-08T18:44:45.354Z,6.53
2023-01-08T18:50:08.634Z,6.56
2023-01-08T18:55:31.201Z,6.52
2023-01-08T19:00:56.243Z,6.45
2023-01-08T19:06:18.977Z,6.37
2023-01-08T19:11:42.904Z,6.41
2023-01-08T19:17:06.264Z,6.51
2023-01-08T19:22:28.775Z,6.66
2023-01-08T19:27:50.917Z,6.67
2023-01-08T19:33:13.450Z,6.52
2023-01-08T19:38:35.787Z,6.45
2023-01-08T19:43:58.508Z,6.46
2023-01-08T19:49:20.437Z,6.44
2023-01-08T19:54:42.364Z,6.59
2023-01-08T20:00:05.245Z,6.65
2023-01-08T20:05:40.708Z,6.65
2023-01-08T20:11:11.838Z,6.66
2023-01-08T20:16:33.991Z,6.68
2023-01-08T20:21:58.520Z,6.67
2023-01-08T20:27:20.343Z,6.71
2023-01-08T20:32:42.162Z,6.61
2023-01-08T20:38:04.396Z,6.47
2023-01-08T20:43:27.032Z,6.46
2023-01-08T20:48:53.162Z,6.50
2023-01-08T20:54:16.364Z,6.53
2023-01-08T20:59:39.453Z,6.59
2023-01-08T21:05:01.476Z,6.72
2023-01-08T21:10:23.491Z,6.86
2023-01-08T21:15:50.250Z,6.78
2023-01-08T21:21:12.571Z,6.65
2023-01-08T21:26:36.162Z,6.60
2023-01-08T21:37:34.618Z,6.40
2023-01-08T21:43:14.807Z,6.43
2023-01-08T21:48:36.825Z,6.51
2023-01-08T21:54:00.146Z,6.57
2023-01-08T21:59:23.027Z,6.59
2023-01-08T22:04:45.242Z,6.59
2023-01-08T22:10:07.765Z,6.56
2023-01-08T22:15:29.553Z,6.56
2023-01-08T22:20:59.674Z,6.47
2023-01-08T22:26:21.705Z,6.38
2023-01-08T22:31:43.495Z,6.38
2023-01-08T22:37:05.543Z,6.36
2023-01-08T22:42:27.569Z,6.35
2023-01-08T22:47:49.634Z,6.33
2023-01-08T22:53:11.833Z,6.30
2023-01-08T22:58:33.762Z,6.23
2023-01-08T23:03:58.265Z,6.22
2023-01-08T23:09:20.134Z,6.21
2023-01-08T23:14:42.069Z,6.18
2023-01-08T23:20:08.764Z,6.09
2023-01-08T23:25:32.135Z,6.07
2023-01-08T23:30:58.708Z,6.02
2023-01-08T23:36:21.623Z,5.99
2023-01-08T23:41:43.348Z,5.95
2023-01-08T23:47:05.488Z,5.91
2023-01-08T23:52:27.114Z,5.81
2023-01-08T23:57:49.351Z,5.67
